sensor_id;sensor_type;location;lat;lon;timestamp;temperature;humidity
51765;DHT22;37835;53.256;6.456;2022-10-30T00:02:25;13.80;99.90
51765;DHT22;37835;53.256;6.456;2022-10-30T00:04:50;13.80;99.90
51765;DHT22;37835;53.256;6.456;2022-10-30T00:07:16;13.80;99.90
51765;DHT22;37835;53.256;6.456;2022-10-30T00:09:41;13.70;99.90
51765;DHT22;37835;53.256;6.456;2022-10-30T00:12:07;13.70;99.90
51765;DHT22;37835;53.256;6.456;2022-10-30T00:14:32;13.70;99.90
51765;DHT22;37835;53.256;6.456;2022-10-30T00:16:58;13.70;99.90
51765;DHT22;37835;53.256;6.456;2022-10-30T00:19:24;13.60;99.90
51765;DHT22;37835;53.256;6.456;2022-10-30T00:21:49;13.60;99.90
51765;DHT22;37835;53.256;6.456;2022-10-30T00:24:15;13.60;99.90
51765;DHT22;37835;53.256;6.456;2022-10-30T00:26:40;13.60;99.90
51765;DHT22;37835;53.256;6.456;2022-10-30T00:29:06;13.60;99.90
51765;DHT22;37835;53.256;6.456;2022-10-30T00:31:31;13.60;99.90
51765;DHT22;37835;53.256;6.456;2022-10-30T00:33:57;13.50;99.90
51765;DHT22;37835;53.256;6.456;2022-10-30T00:36:22;13.50;99.90
51765;DHT22;37835;53.256;6.456;2022-10-30T00:38:48;13.60;99.90
51765;DHT22;37835;53.256;6.456;2022-10-30T00:41:15;13.50;99.90
51765;DHT22;37835;53.256;6.456;2022-10-30T00:43:41;13.50;99.90
51765;DHT22;37835;53.256;6.456;2022-10-30T00:46:20;13.60;99.90
51765;DHT22;37835;53.256;6.456;2022-10-30T00:51:42;13.50;99.90
51765;DHT22;37835;53.256;6.456;2022-10-30T00:54:13;13.60;99.90
51765;DHT22;37835;53.256;6.456;2022-10-30T00:56:40;13.50;99.90
51765;DHT22;37835;53.256;6.456;2022-10-30T00:59:13;13.50;99.90
51765;DHT22;37835;53.256;6.456;2022-10-30T01:01:42;13.50;99.90
51765;DHT22;37835;53.256;6.456;2022-10-30T01:04:10;13.60;99.90
51765;DHT22;37835;53.256;6.456;2022-10-30T01:06:39;13.50;99.90
51765;DHT22;37835;53.256;6.456;2022-10-30T01:09:05;13.60;99.90
51765;DHT22;37835;53.256;6.456;2022-10-30T01:11:31;13.60;99.90
51765;DHT22;37835;53.256;6.456;2022-10-30T01:14:01;13.60;99.90
51765;DHT22;37835;53.256;6.456;2022-10-30T01:16:38;13.60;99.90
51765;DHT22;37835;53.256;6.456;2022-10-30T01:19:27;13.60;99.90
51765;DHT22;37835;53.256;6.456;2022-10-30T01:22:13;13.50;99.90
51765;DHT22;37835;53.256;6.456;2022-10-30T01:25:03;13.50;99.90
51765;DHT22;37835;53.256;6.456;2022-10-30T01:27:37;13.50;99.90
51765;DHT22;37835;53.256;6.456;2022-10-30T01:35:39;13.50;99.90
51765;DHT22;37835;53.256;6.456;2022-10-30T01:38:16;13.50;99.90
51765;DHT22;37835;53.256;6.456;2022-10-30T01:40:44;13.50;99.90
51765;DHT22;37835;53.256;6.456;2022-10-30T01:43:10;13.50;99.90
51765;DHT22;37835;53.256;6.456;2022-10-30T01:46:06;13.60;99.90
51765;DHT22;37835;53.256;6.456;2022-10-30T01:48:52;13.60;99.90
51765;DHT22;37835;53.256;6.456;2022-10-30T01:54:42;13.50;99.90
51765;DHT22;37835;53.256;6.456;2022-10-30T02:00:20;13.50;99.90
51765;DHT22;37835;53.256;6.456;2022-10-30T02:02:48;13.50;99.90
51765;DHT22;37835;53.256;6.456;2022-10-30T02:05:22;13.50;99.90
51765;DHT22;37835;53.256;6.456;2022-10-30T02:07:50;13.50;99.90
51765;DHT22;37835;53.256;6.456;2022-10-30T02:10:16;13.50;99.90
51765;DHT22;37835;53.256;6.456;2022-10-30T02:12:41;13.40;99.90
51765;DHT22;37835;53.256;6.456;2022-10-30T02:15:08;13.50;99.90
51765;DHT22;37835;53.256;6.456;2022-10-30T02:17:34;13.50;99.90
51765;DHT22;37835;53.256;6.456;2022-10-30T02:19:59;13.40;99.90
51765;DHT22;37835;53.256;6.456;2022-10-30T02:22:25;13.40;99.90
51765;DHT22;37835;53.256;6.456;2022-10-30T02:24:50;13.50;99.90
51765;DHT22;37835;53.256;6.456;2022-10-30T02:27:16;13.40;99.90
51765;DHT22;37835;53.256;6.456;2022-10-30T02:29:42;13.40;99.90
51765;DHT22;37835;53.256;6.456;2022-10-30T02:32:07;13.40;99.90
51765;DHT22;37835;53.256;6.456;2022-10-30T02:34:33;13.40;99.90
51765;DHT22;37835;53.256;6.456;2022-10-30T02:36:58;13.40;99.90
51765;DHT22;37835;53.256;6.456;2022-10-30T02:39:24;13.40;99.90
51765;DHT22;37835;53.256;6.456;2022-10-30T02:41:50;13.40;99.90
51765;DHT22;37835;53.256;6.456;2022-10-30T02:44:15;13.40;99.90
51765;DHT22;37835;53.256;6.456;2022-10-30T02:46:41;13.40;99.90
51765;DHT22;37835;53.256;6.456;2022-10-30T02:49:06;13.40;99.90
51765;DHT22;37835;53.256;6.456;2022-10-30T02:51:32;13.40;99.90
51765;DHT22;37835;53.256;6.456;2022-10-30T02:53:59;13.40;99.90
51765;DHT22;37835;53.256;6.456;2022-10-30T02:56:24;13.30;99.90
51765;DHT22;37835;53.256;6.456;2022-10-30T02:58:50;13.30;99.90
51765;DHT22;37835;53.256;6.456;2022-10-30T03:01:18;13.30;99.90
51765;DHT22;37835;53.256;6.456;2022-10-30T03:03:44;13.30;99.90
51765;DHT22;37835;53.256;6.456;2022-10-30T03:06:13;13.30;99.90
51765;DHT22;37835;53.256;6.456;2022-10-30T03:08:40;13.30;99.90
51765;DHT22;37835;53.256;6.456;2022-10-30T03:11:08;13.30;99.90
51765;DHT22;37835;53.256;6.456;2022-10-30T03:13:35;13.30;99.90
51765;DHT22;37835;53.256;6.456;2022-10-30T03:16:07;13.20;99.90
51765;DHT22;37835;53.256;6.456;2022-10-30T03:18:33;13.20;99.90
51765;DHT22;37835;53.256;6.456;2022-10-30T03:21:02;13.20;99.90
51765;DHT22;37835;53.256;6.456;2022-10-30T03:23:28;13.30;99.90
51765;DHT22;37835;53.256;6.456;2022-10-30T03:25:56;13.20;99.90
51765;DHT22;37835;53.256;6.456;2022-10-30T03:28:23;13.10;99.90
51765;DHT22;37835;53.256;6.456;2022-10-30T03:30:50;13.10;99.90
51765;DHT22;37835;53.256;6.456;2022-10-30T03:33:16;13.10;99.90
51765;DHT22;37835;53.256;6.456;2022-10-30T03:35:43;13.10;99.90
51765;DHT22;37835;53.256;6.456;2022-10-30T03:38:13;13.00;99.90
51765;DHT22;37835;53.256;6.456;2022-10-30T03:40:39;13.00;99.90
51765;DHT22;37835;53.256;6.456;2022-10-30T03:43:05;13.00;99.90
51765;DHT22;37835;53.256;6.456;2022-10-30T03:45:32;13.00;99.90
51765;DHT22;37835;53.256;6.456;2022-10-30T03:48:00;13.00;99.90
51765;DHT22;37835;53.256;6.456;2022-10-30T03:50:26;13.00;99.90
51765;DHT22;37835;53.256;6.456;2022-10-30T03:52:53;12.90;99.90
51765;DHT22;37835;53.256;6.456;2022-10-30T03:55:19;12.90;99.90
51765;DHT22;37835;53.256;6.456;2022-10-30T03:57:45;12.90;99.90
51765;DHT22;37835;53.256;6.456;2022-10-30T04:00:11;12.90;99.90
51765;DHT22;37835;53.256;6.456;2022-10-30T04:02:36;12.90;99.90
51765;DHT22;37835;53.256;6.456;2022-10-30T04:05:02;12.90;99.90
51765;DHT22;37835;53.256;6.456;2022-10-30T04:07:28;12.80;99.90
51765;DHT22;37835;53.256;6.456;2022-10-30T04:09:54;12.80;99.90
51765;DHT22;37835;53.256;6.456;2022-10-30T04:12:20;12.80;99.90
51765;DHT22;37835;53.256;6.456;2022-10-30T04:14:45;12.80;99.90
51765;DHT22;37835;53.256;6.456;2022-10-30T04:17:11;12.80;99.90
51765;DHT22;37835;53.256;6.456;2022-10-30T04:19:36;12.80;99.90
51765;DHT22;37835;53.256;6.456;2022-10-30T04:22:02;12.80;99.90
51765;DHT22;37835;53.256;6.456;2022-10-30T04:24:27;12.80;99.90
51765;DHT22;37835;53.256;6.456;2022-10-30T04:26:53;12.70;99.90
51765;DHT22;37835;53.256;6.456;2022-10-30T04:29:18;12.70;99.90
51765;DHT22;37835;53.256;6.456;2022-10-30T04:31:44;12.70;99.90
51765;DHT22;37835;53.256;6.456;2022-10-30T04:34:10;12.70;99.90
51765;DHT22;37835;53.256;6.456;2022-10-30T04:36:36;12.60;99.90
51765;DHT22;37835;53.256;6.456;2022-10-30T04:39:02;12.60;99.90
51765;DHT22;37835;53.256;6.456;2022-10-30T04:41:28;12.60;99.90
51765;DHT22;37835;53.256;6.456;2022-10-30T04:43:54;12.70;99.90
51765;DHT22;37835;53.256;6.456;2022-10-30T04:46:19;12.60;99.90
51765;DHT22;37835;53.256;6.456;2022-10-30T04:48:45;12.60;99.90
51765;DHT22;37835;53.256;6.456;2022-10-30T04:51:11;12.60;99.90
51765;DHT22;37835;53.256;6.456;2022-10-30T04:53:37;12.60;99.90
51765;DHT22;37835;53.256;6.456;2022-10-30T04:56:04;12.70;99.90
51765;DHT22;37835;53.256;6.456;2022-10-30T04:58:30;12.60;99.90
51765;DHT22;37835;53.256;6.456;2022-10-30T05:01:00;12.60;99.90
51765;DHT22;37835;53.256;6.456;2022-10-30T05:03:27;12.60;99.90
51765;DHT22;37835;53.256;6.456;2022-10-30T05:05:58;12.60;99.90
51765;DHT22;37835;53.256;6.456;2022-10-30T05:08:25;12.60;99.90
51765;DHT22;37835;53.256;6.456;2022-10-30T05:10:52;12.60;99.90
51765;DHT22;37835;53.256;6.456;2022-10-30T05:13:17;12.60;99.90
51765;DHT22;37835;53.256;6.456;2022-10-30T05:15:43;12.60;99.90
51765;DHT22;37835;53.256;6.456;2022-10-30T05:18:09;12.60;99.90
51765;DHT22;37835;53.256;6.456;2022-10-30T05:20:34;12.60;99.90
51765;DHT22;37835;53.256;6.456;2022-10-30T05:23:00;12.60;99.90
51765;DHT22;37835;53.256;6.456;2022-10-30T05:25:26;12.60;99.90
51765;DHT22;37835;53.256;6.456;2022-10-30T05:28:03;12.60;99.90
51765;DHT22;37835;53.256;6.456;2022-10-30T05:30:31;12.60;99.90
51765;DHT22;37835;53.256;6.456;2022-10-30T05:33:05;12.60;99.90
51765;DHT22;37835;53.256;6.456;2022-10-30T05:35:32;12.60;99.90
51765;DHT22;37835;53.256;6.456;2022-10-30T05:37:59;12.50;99.90
51765;DHT22;37835;53.256;6.456;2022-10-30T05:40:25;12.60;99.90
51765;DHT22;37835;53.256;6.456;2022-10-30T05:42:51;12.50;99.90
51765;DHT22;37835;53.256;6.456;2022-10-30T05:45:17;12.50;99.90
51765;DHT22;37835;53.256;6.456;2022-10-30T05:47:43;12.60;99.90
51765;DHT22;37835;53.256;6.456;2022-10-30T05:50:09;12.50;99.90
51765;DHT22;37835;53.256;6.456;2022-10-30T05:52:35;12.50;99.90
51765;DHT22;37835;53.256;6.456;2022-10-30T05:55:02;12.50;99.90
51765;DHT22;37835;53.256;6.456;2022-10-30T05:57:28;12.50;99.90
51765;DHT22;37835;53.256;6.456;2022-10-30T05:59:55;12.50;99.90
51765;DHT22;37835;53.256;6.456;2022-10-30T06:02:21;12.40;99.90
51765;DHT22;37835;53.256;6.456;2022-10-30T06:04:46;12.40;99.90
51765;DHT22;37835;53.256;6.456;2022-10-30T06:07:12;12.40;99.90
51765;DHT22;37835;53.256;6.456;2022-10-30T06:09:37;12.40;99.90
51765;DHT22;37835;53.256;6.456;2022-10-30T06:12:03;12.40;99.90
51765;DHT22;37835;53.256;6.456;2022-10-30T06:14:29;12.40;99.90
51765;DHT22;37835;53.256;6.456;2022-10-30T06:16:54;12.40;99.90
51765;DHT22;37835;53.256;6.456;2022-10-30T06:19:20;12.40;99.90
51765;DHT22;37835;53.256;6.456;2022-10-30T06:21:46;12.40;99.90
51765;DHT22;37835;53.256;6.456;2022-10-30T06:24:12;12.30;99.90
51765;DHT22;37835;53.256;6.456;2022-10-30T06:26:38;12.30;99.90
51765;DHT22;37835;53.256;6.456;2022-10-30T06:29:04;12.30;99.90
51765;DHT22;37835;53.256;6.456;2022-10-30T06:31:29;12.30;99.90
51765;DHT22;37835;53.256;6.456;2022-10-30T06:33:55;12.30;99.90
51765;DHT22;37835;53.256;6.456;2022-10-30T06:36:20;12.30;99.90
51765;DHT22;37835;53.256;6.456;2022-10-30T06:38:46;12.30;99.90
51765;DHT22;37835;53.256;6.456;2022-10-30T06:41:12;12.30;99.90
51765;DHT22;37835;53.256;6.456;2022-10-30T06:43:37;12.30;99.90
51765;DHT22;37835;53.256;6.456;2022-10-30T06:46:03;12.20;99.90
51765;DHT22;37835;53.256;6.456;2022-10-30T06:48:29;12.20;99.90
51765;DHT22;37835;53.256;6.456;2022-10-30T06:50:59;12.20;99.90
51765;DHT22;37835;53.256;6.456;2022-10-30T06:53:25;12.20;99.90
51765;DHT22;37835;53.256;6.456;2022-10-30T06:55:58;12.20;99.90
51765;DHT22;37835;53.256;6.456;2022-10-30T06:58:25;12.20;99.90
51765;DHT22;37835;53.256;6.456;2022-10-30T07:00:51;12.20;99.90
51765;DHT22;37835;53.256;6.456;2022-10-30T07:03:17;12.20;99.90
51765;DHT22;37835;53.256;6.456;2022-10-30T07:05:43;12.20;99.90
51765;DHT22;37835;53.256;6.456;2022-10-30T07:08:08;12.20;99.90
51765;DHT22;37835;53.256;6.456;2022-10-30T07:10:34;12.20;99.90
51765;DHT22;37835;53.256;6.456;2022-10-30T07:13:00;12.20;99.90
51765;DHT22;37835;53.256;6.456;2022-10-30T07:15:25;12.20;99.90
51765;DHT22;37835;53.256;6.456;2022-10-30T07:17:56;12.20;99.90
51765;DHT22;37835;53.256;6.456;2022-10-30T07:20:22;12.30;99.90
51765;DHT22;37835;53.256;6.456;2022-10-30T07:22:48;12.20;99.90
51765;DHT22;37835;53.256;6.456;2022-10-30T07:25:14;11.60;99.90
51765;DHT22;37835;53.256;6.456;2022-10-30T07:27:47;12.20;99.90
51765;DHT22;37835;53.256;6.456;2022-10-30T07:30:15;12.20;99.90
51765;DHT22;37835;53.256;6.456;2022-10-30T07:32:41;12.30;99.90
51765;DHT22;37835;53.256;6.456;2022-10-30T07:35:08;12.30;99.90
51765;DHT22;37835;53.256;6.456;2022-10-30T07:37:34;12.30;99.90
51765;DHT22;37835;53.256;6.456;2022-10-30T07:40:00;12.30;99.90
51765;DHT22;37835;53.256;6.456;2022-10-30T07:42:25;12.30;99.90
51765;DHT22;37835;53.256;6.456;2022-10-30T07:44:51;12.30;99.90
51765;DHT22;37835;53.256;6.456;2022-10-30T07:47:16;12.30;99.90
51765;DHT22;37835;53.256;6.456;2022-10-30T07:49:42;12.40;99.90
51765;DHT22;37835;53.256;6.456;2022-10-30T07:52:08;12.40;99.90
51765;DHT22;37835;53.256;6.456;2022-10-30T07:54:33;12.40;99.90
51765;DHT22;37835;53.256;6.456;2022-10-30T07:56:59;12.50;99.90
51765;DHT22;37835;53.256;6.456;2022-10-30T07:59:24;12.50;99.90
51765;DHT22;37835;53.256;6.456;2022-10-30T08:01:50;12.60;99.90
51765;DHT22;37835;53.256;6.456;2022-10-30T08:04:16;12.60;99.90
51765;DHT22;37835;53.256;6.456;2022-10-30T08:06:42;12.70;99.90
51765;DHT22;37835;53.256;6.456;2022-10-30T08:09:07;12.70;99.90
51765;DHT22;37835;53.256;6.456;2022-10-30T08:11:33;12.80;99.90
51765;DHT22;37835;53.256;6.456;2022-10-30T08:13:59;12.80;99.90
51765;DHT22;37835;53.256;6.456;2022-10-30T08:16:25;12.90;99.90
51765;DHT22;37835;53.256;6.456;2022-10-30T08:18:51;12.90;99.90
51765;DHT22;37835;53.256;6.456;2022-10-30T08:21:16;13.00;99.90
51765;DHT22;37835;53.256;6.456;2022-10-30T08:23:42;13.00;99.90
51765;DHT22;37835;53.256;6.456;2022-10-30T08:26:07;13.10;99.90
51765;DHT22;37835;53.256;6.456;2022-10-30T08:28:33;13.20;99.90
51765;DHT22;37835;53.256;6.456;2022-10-30T08:30:59;13.20;99.90
51765;DHT22;37835;53.256;6.456;2022-10-30T08:33:25;13.30;99.90
51765;DHT22;37835;53.256;6.456;2022-10-30T08:35:53;13.30;99.90
51765;DHT22;37835;53.256;6.456;2022-10-30T08:38:21;13.40;99.90
51765;DHT22;37835;53.256;6.456;2022-10-30T08:40:47;13.50;99.90
51765;DHT22;37835;53.256;6.456;2022-10-30T08:43:13;13.50;99.90
51765;DHT22;37835;53.256;6.456;2022-10-30T08:45:39;13.60;99.90
51765;DHT22;37835;53.256;6.456;2022-10-30T08:48:06;13.70;99.90
51765;DHT22;37835;53.256;6.456;2022-10-30T08:50:33;13.80;99.90
51765;DHT22;37835;53.256;6.456;2022-10-30T08:53:04;13.80;99.90
51765;DHT22;37835;53.256;6.456;2022-10-30T08:55:31;13.90;99.90
51765;DHT22;37835;53.256;6.456;2022-10-30T08:57:57;14.00;99.90
51765;DHT22;37835;53.256;6.456;2022-10-30T09:00:22;14.10;99.90
51765;DHT22;37835;53.256;6.456;2022-10-30T09:02:48;14.20;99.90
51765;DHT22;37835;53.256;6.456;2022-10-30T09:05:14;14.20;99.90
51765;DHT22;37835;53.256;6.456;2022-10-30T09:07:39;14.30;99.90
51765;DHT22;37835;53.256;6.456;2022-10-30T09:10:05;14.40;99.90
51765;DHT22;37835;53.256;6.456;2022-10-30T09:12:31;14.40;99.90
51765;DHT22;37835;53.256;6.456;2022-10-30T09:14:56;14.50;99.90
51765;DHT22;37835;53.256;6.456;2022-10-30T09:17:22;14.60;99.90
51765;DHT22;37835;53.256;6.456;2022-10-30T09:19:47;14.60;99.90
51765;DHT22;37835;53.256;6.456;2022-10-30T09:22:13;14.70;99.90
51765;DHT22;37835;53.256;6.456;2022-10-30T09:24:39;14.80;99.90
51765;DHT22;37835;53.256;6.456;2022-10-30T09:27:05;14.90;99.90
51765;DHT22;37835;53.256;6.456;2022-10-30T09:29:31;15.00;99.90
51765;DHT22;37835;53.256;6.456;2022-10-30T09:31:59;15.00;99.90
51765;DHT22;37835;53.256;6.456;2022-10-30T09:34:25;15.10;99.90
51765;DHT22;37835;53.256;6.456;2022-10-30T09:36:55;15.20;99.90
51765;DHT22;37835;53.256;6.456;2022-10-30T09:39:20;15.30;99.90
51765;DHT22;37835;53.256;6.456;2022-10-30T09:50:39;15.60;99.90
51765;DHT22;37835;53.256;6.456;2022-10-30T09:59:04;15.80;99.90
51765;DHT22;37835;53.256;6.456;2022-10-30T10:01:41;15.90;99.90
51765;DHT22;37835;53.256;6.456;2022-10-30T10:06:58;16.00;99.90
51765;DHT22;37835;53.256;6.456;2022-10-30T10:09:25;16.10;99.90
51765;DHT22;37835;53.256;6.456;2022-10-30T10:11:58;16.10;99.90
51765;DHT22;37835;53.256;6.456;2022-10-30T10:14:30;16.10;99.90
51765;DHT22;37835;53.256;6.456;2022-10-30T10:16:59;16.20;99.90
51765;DHT22;37835;53.256;6.456;2022-10-30T10:19:40;16.20;99.90
51765;DHT22;37835;53.256;6.456;2022-10-30T10:24:49;16.30;99.90
51765;DHT22;37835;53.256;6.456;2022-10-30T10:30:23;16.40;99.90
51765;DHT22;37835;53.256;6.456;2022-10-30T10:33:54;16.50;99.90
51765;DHT22;37835;53.256;6.456;2022-10-30T10:36:21;16.50;99.90
51765;DHT22;37835;53.256;6.456;2022-10-30T10:41:56;16.70;99.90
51765;DHT22;37835;53.256;6.456;2022-10-30T10:50:21;16.90;99.90
51765;DHT22;37835;53.256;6.456;2022-10-30T10:52:55;17.00;99.90
51765;DHT22;37835;53.256;6.456;2022-10-30T10:55:31;17.10;99.90
51765;DHT22;37835;53.256;6.456;2022-10-30T10:58:04;17.20;99.90
51765;DHT22;37835;53.256;6.456;2022-10-30T11:00:31;17.30;99.90
51765;DHT22;37835;53.256;6.456;2022-10-30T11:03:19;17.30;99.90
51765;DHT22;37835;53.256;6.456;2022-10-30T11:05:58;17.40;99.90
51765;DHT22;37835;53.256;6.456;2022-10-30T11:08:30;17.50;99.90
51765;DHT22;37835;53.256;6.456;2022-10-30T11:11:02;17.50;99.90
51765;DHT22;37835;53.256;6.456;2022-10-30T11:13:30;17.50;99.90
51765;DHT22;37835;53.256;6.456;2022-10-30T11:18:42;17.60;99.90
51765;DHT22;37835;53.256;6.456;2022-10-30T11:21:20;17.70;99.90
51765;DHT22;37835;53.256;6.456;2022-10-30T11:23:48;17.70;99.90
51765;DHT22;37835;53.256;6.456;2022-10-30T11:28:53;17.80;99.90
51765;DHT22;37835;53.256;6.456;2022-10-30T11:31:27;17.90;99.90
51765;DHT22;37835;53.256;6.456;2022-10-30T11:33:54;18.00;99.90
51765;DHT22;37835;53.256;6.456;2022-10-30T11:36:24;18.00;99.90
51765;DHT22;37835;53.256;6.456;2022-10-30T11:38:51;18.00;99.90
51765;DHT22;37835;53.256;6.456;2022-10-30T11:41:18;18.10;99.90
51765;DHT22;37835;53.256;6.456;2022-10-30T11:43:45;18.10;99.90
51765;DHT22;37835;53.256;6.456;2022-10-30T11:46:21;18.10;99.90
51765;DHT22;37835;53.256;6.456;2022-10-30T11:48:47;18.20;99.90
51765;DHT22;37835;53.256;6.456;2022-10-30T11:51:30;18.20;99.90
51765;DHT22;37835;53.256;6.456;2022-10-30T11:53:57;18.20;99.90
51765;DHT22;37835;53.256;6.456;2022-10-30T11:56:23;18.30;99.90
51765;DHT22;37835;53.256;6.456;2022-10-30T11:58:54;18.30;99.90
51765;DHT22;37835;53.256;6.456;2022-10-30T12:01:29;18.30;99.90
51765;DHT22;37835;53.256;6.456;2022-10-30T12:03:56;18.30;99.90
51765;DHT22;37835;53.256;6.456;2022-10-30T12:11:40;18.40;99.90
51765;DHT22;37835;53.256;6.456;2022-10-30T12:14:17;18.50;99.90
51765;DHT22;37835;53.256;6.456;2022-10-30T12:16:49;18.50;99.90
51765;DHT22;37835;53.256;6.456;2022-10-30T12:19:16;18.50;99.90
51765;DHT22;37835;53.256;6.456;2022-10-30T12:21:45;18.60;99.90
51765;DHT22;37835;53.256;6.456;2022-10-30T12:24:17;18.60;99.90
51765;DHT22;37835;53.256;6.456;2022-10-30T12:26:50;18.60;99.90
51765;DHT22;37835;53.256;6.456;2022-10-30T12:29:18;18.70;99.90
51765;DHT22;37835;53.256;6.456;2022-10-30T12:31:57;18.70;99.90
51765;DHT22;37835;53.256;6.456;2022-10-30T12:34:42;18.70;99.90
51765;DHT22;37835;53.256;6.456;2022-10-30T12:39:52;18.70;99.90
51765;DHT22;37835;53.256;6.456;2022-10-30T12:42:20;18.80;99.90
51765;DHT22;37835;53.256;6.456;2022-10-30T12:44:49;18.80;99.90
51765;DHT22;37835;53.256;6.456;2022-10-30T12:47:25;18.80;99.90
51765;DHT22;37835;53.256;6.456;2022-10-30T12:52:43;18.80;99.90
51765;DHT22;37835;53.256;6.456;2022-10-30T12:55:33;18.80;99.90
51765;DHT22;37835;53.256;6.456;2022-10-30T13:01:40;18.80;99.90
51765;DHT22;37835;53.256;6.456;2022-10-30T13:06:48;18.80;99.90
51765;DHT22;37835;53.256;6.456;2022-10-30T13:09:22;18.80;99.90
51765;DHT22;37835;53.256;6.456;2022-10-30T13:17:12;18.80;99.90
51765;DHT22;37835;53.256;6.456;2022-10-30T13:19:43;18.80;99.90
51765;DHT22;37835;53.256;6.456;2022-10-30T13:22:37;18.80;99.90
51765;DHT22;37835;53.256;6.456;2022-10-30T13:25:30;18.80;99.90
51765;DHT22;37835;53.256;6.456;2022-10-30T13:28:19;18.80;99.90
51765;DHT22;37835;53.256;6.456;2022-10-30T13:33:39;18.80;99.90
51765;DHT22;37835;53.256;6.456;2022-10-30T13:36:25;18.80;99.90
51765;DHT22;37835;53.256;6.456;2022-10-30T13:39:16;18.80;99.90
51765;DHT22;37835;53.256;6.456;2022-10-30T13:41:55;18.80;99.90
51765;DHT22;37835;53.256;6.456;2022-10-30T13:44:45;18.80;99.90
51765;DHT22;37835;53.256;6.456;2022-10-30T13:53:16;18.80;99.90
51765;DHT22;37835;53.256;6.456;2022-10-30T13:55:45;18.80;99.90
51765;DHT22;37835;53.256;6.456;2022-10-30T14:01:11;18.80;99.90
51765;DHT22;37835;53.256;6.456;2022-10-30T14:04:19;18.80;99.90
51765;DHT22;37835;53.256;6.456;2022-10-30T14:07:06;18.80;99.90
51765;DHT22;37835;53.256;6.456;2022-10-30T14:16:00;18.80;99.90
51765;DHT22;37835;53.256;6.456;2022-10-30T14:20:44;18.70;99.90
51765;DHT22;37835;53.256;6.456;2022-10-30T14:23:19;18.70;99.90
51765;DHT22;37835;53.256;6.456;2022-10-30T14:28:27;18.70;99.90
51765;DHT22;37835;53.256;6.456;2022-10-30T14:31:01;18.70;99.90
51765;DHT22;37835;53.256;6.456;2022-10-30T14:38:39;18.60;99.90
51765;DHT22;37835;53.256;6.456;2022-10-30T14:41:16;18.60;99.90
51765;DHT22;37835;53.256;6.456;2022-10-30T14:44:04;18.70;99.90
51765;DHT22;37835;53.256;6.456;2022-10-30T14:46:41;18.60;99.90
51765;DHT22;37835;53.256;6.456;2022-10-30T14:49:26;18.60;99.90
51765;DHT22;37835;53.256;6.456;2022-10-30T14:52:09;18.60;99.90
51765;DHT22;37835;53.256;6.456;2022-10-30T14:54:47;18.60;99.90
51765;DHT22;37835;53.256;6.456;2022-10-30T15:03:43;18.50;99.90
51765;DHT22;37835;53.256;6.456;2022-10-30T15:08:40;18.40;99.90
51765;DHT22;37835;53.256;6.456;2022-10-30T15:11:26;18.40;99.90
51765;DHT22;37835;53.256;6.456;2022-10-30T15:13:59;18.40;99.90
51765;DHT22;37835;53.256;6.456;2022-10-30T15:16:27;18.30;99.90
51765;DHT22;37835;53.256;6.456;2022-10-30T15:18:59;18.30;99.90
51765;DHT22;37835;53.256;6.456;2022-10-30T15:21:27;18.20;99.90
51765;DHT22;37835;53.256;6.456;2022-10-30T15:23:56;18.20;99.90
51765;DHT22;37835;53.256;6.456;2022-10-30T15:26:30;18.10;99.90
51765;DHT22;37835;53.256;6.456;2022-10-30T15:28:57;18.10;99.90
51765;DHT22;37835;53.256;6.456;2022-10-30T15:31:25;18.00;99.90
51765;DHT22;37835;53.256;6.456;2022-10-30T15:33:52;18.00;99.90
51765;DHT22;37835;53.256;6.456;2022-10-30T15:36:42;18.00;99.90
51765;DHT22;37835;53.256;6.456;2022-10-30T15:39:14;17.90;99.90
51765;DHT22;37835;53.256;6.456;2022-10-30T15:41:58;17.90;99.90
51765;DHT22;37835;53.256;6.456;2022-10-30T15:44:30;17.80;99.90
51765;DHT22;37835;53.256;6.456;2022-10-30T15:46:58;17.80;99.90
51765;DHT22;37835;53.256;6.456;2022-10-30T15:49:52;17.70;99.90
51765;DHT22;37835;53.256;6.456;2022-10-30T15:52:25;17.70;99.90
51765;DHT22;37835;53.256;6.456;2022-10-30T15:54:58;17.60;99.90
51765;DHT22;37835;53.256;6.456;2022-10-30T15:57:37;17.60;99.90
51765;DHT22;37835;53.256;6.456;2022-10-30T16:00:17;17.60;99.90
51765;DHT22;37835;53.256;6.456;2022-10-30T16:02:46;17.50;99.90
51765;DHT22;37835;53.256;6.456;2022-10-30T16:05:23;17.40;99.90
51765;DHT22;37835;53.256;6.456;2022-10-30T16:07:50;17.40;99.90
51765;DHT22;37835;53.256;6.456;2022-10-30T16:10:16;17.30;99.90
51765;DHT22;37835;53.256;6.456;2022-10-30T16:12:43;17.30;99.90
51765;DHT22;37835;53.256;6.456;2022-10-30T16:15:29;17.20;99.90
51765;DHT22;37835;53.256;6.456;2022-10-30T16:18:14;17.20;99.90
51765;DHT22;37835;53.256;6.456;2022-10-30T16:20:43;17.10;99.90
51765;DHT22;37835;53.256;6.456;2022-10-30T16:23:09;17.10;99.90
51765;DHT22;37835;53.256;6.456;2022-10-30T16:25:37;17.00;99.90
51765;DHT22;37835;53.256;6.456;2022-10-30T16:28:04;16.90;99.90
51765;DHT22;37835;53.256;6.456;2022-10-30T16:30:31;16.90;99.90
51765;DHT22;37835;53.256;6.456;2022-10-30T16:32:58;16.80;99.90
51765;DHT22;37835;53.256;6.456;2022-10-30T16:35:25;16.80;99.90
51765;DHT22;37835;53.256;6.456;2022-10-30T16:37:51;16.70;99.90
51765;DHT22;37835;53.256;6.456;2022-10-30T16:40:26;16.70;99.90
51765;DHT22;37835;53.256;6.456;2022-10-30T16:42:57;16.60;99.90
51765;DHT22;37835;53.256;6.456;2022-10-30T16:48:10;16.50;99.90
51765;DHT22;37835;53.256;6.456;2022-10-30T16:50:40;16.40;99.90
51765;DHT22;37835;53.256;6.456;2022-10-30T16:53:17;16.30;99.90
51765;DHT22;37835;53.256;6.456;2022-10-30T16:55:44;16.20;99.90
51765;DHT22;37835;53.256;6.456;2022-10-30T16:58:11;16.10;99.90
51765;DHT22;37835;53.256;6.456;2022-10-30T17:00:39;16.10;99.90
51765;DHT22;37835;53.256;6.456;2022-10-30T17:03:10;16.00;99.90
51765;DHT22;37835;53.256;6.456;2022-10-30T17:05:36;16.00;99.90
51765;DHT22;37835;53.256;6.456;2022-10-30T17:13:35;15.90;99.90
51765;DHT22;37835;53.256;6.456;2022-10-30T17:16:23;15.90;99.90
51765;DHT22;37835;53.256;6.456;2022-10-30T17:18:50;15.80;99.90
51765;DHT22;37835;53.256;6.456;2022-10-30T17:21:19;15.80;99.90
51765;DHT22;37835;53.256;6.456;2022-10-30T17:23:54;15.80;99.90
51765;DHT22;37835;53.256;6.456;2022-10-30T17:26:20;15.80;99.90
51765;DHT22;37835;53.256;6.456;2022-10-30T17:28:46;15.80;99.90
51765;DHT22;37835;53.256;6.456;2022-10-30T17:31:40;15.80;99.90
51765;DHT22;37835;53.256;6.456;2022-10-30T17:34:15;15.80;99.90
51765;DHT22;37835;53.256;6.456;2022-10-30T17:36:42;15.80;99.90
51765;DHT22;37835;53.256;6.456;2022-10-30T17:39:07;15.80;99.90
51765;DHT22;37835;53.256;6.456;2022-10-30T17:41:33;15.80;99.90
51765;DHT22;37835;53.256;6.456;2022-10-30T17:43:59;15.70;99.90
51765;DHT22;37835;53.256;6.456;2022-10-30T17:46:25;15.80;99.90